Time,TemperatureF,DewpointF,PressureIn,WindDirection,WindDirectionDegrees,WindSpeedMPH,WindSpeedGustMPH,Humidity,HourlyPrecipIn,Conditions,Clouds,dailyrainin,SolarRadiationWatts/m^2,SoftwareType,DateUTC
2013-05-14 00:00:00,65.8,65.6,30.00,NW,315,0.0,0.0,99,0.00,CLR,,0.00,0.0,WeatherDisplay:10.37,2013-05-13 14:00:00,
2013-05-14 00:05:00,65.7,65.4,29.99,NW,315,0.0,0.0,99,0.00,CLR,,0.00,0.0,WeatherDisplay:10.37,2013-05-13 14:05:00,
2013-05-14 00:10:00,65.5,65.2,29.99,NW,315,0.0,0.0,99,0.00,CLR,,0.00,0.0,WeatherDisplay:10.37,2013-05-13 14:10:00,
2013-05-14 00:15:00,65.7,65.4,29.99,NW,315,0.0,0.0,99,0.00,CLR,,0.00,0.0,WeatherDisplay:10.37,2013-05-13 14:15:00,
2013-05-14 00:20:00,65.5,65.2,29.99,NW,315,0.0,0.0,99,0.00,CLR,,0.00,0.0,WeatherDisplay:10.37,2013-05-13 14:20:00,
2013-05-14 00:25:00,65.1,64.8,29.99,NW,315,0.0,0.0,99,0.00,CLR,,0.00,0.0,WeatherDisplay:10.37,2013-05-13 14:25:00,
2013-05-14 00:30:00,65.1,64.8,29.99,NW,315,0.0,0.0,99,0.00,CLR,,0.00,0.0,WeatherDisplay:10.37,2013-05-13 14:30:00,
2013-05-14 00:35:00,64.9,64.7,29.98,NW,315,0.0,0.0,99,0.00,CLR,,0.00,0.0,WeatherDisplay:10.37,2013-05-13 14:35:00,
2013-05-14 00:40:00,64.6,64.3,29.99,NW,315,0.0,0.0,99,0.00,CLR,,0.00,0.0,WeatherDisplay:10.37,2013-05-13 14:40:00,
2013-05-14 00:45:00,64.4,64.1,29.99,NW,315,0.0,0.0,99,0.00,CLR,,0.00,0.0,WeatherDisplay:10.37,2013-05-13 14:45:00,
2013-05-14 00:50:00,64.5,64.2,29.98,NW,315,0.0,0.0,99,0.00,CLR,,0.00,0.0,WeatherDisplay:10.37,2013-05-13 14:50:00,
2013-05-14 01:00:00,64.2,63.4,29.98,NW,315,0.0,0.0,97,0.00,CLR,,0.00,0.0,WeatherDisplay:10.37,2013-05-13 15:00:00,
2013-05-14 01:05:00,64.2,63.4,29.98,NW,315,0.0,0.0,97,0.00,CLR,,0.00,0.0,WeatherDisplay:10.37,2013-05-13 15:05:00,
2013-05-14 01:10:00,64.0,63.2,29.98,NW,315,0.0,0.0,97,0.00,CLR,,0.00,0.0,WeatherDisplay:10.37,2013-05-13 15:10:00,
2013-05-14 01:15:00,63.9,63.0,29.98,NW,315,0.0,0.0,97,0.00,CLR,,0.00,0.0,WeatherDisplay:10.37,2013-05-13 15:15:00,
2013-05-14 01:20:00,63.7,62.8,29.97,NW,315,0.0,0.0,97,0.00,CLR,,0.00,0.0,WeatherDisplay:10.37,2013-05-13 15:20:00,
2013-05-14 01:25:00,63.7,62.8,29.97,NW,315,0.0,0.0,97,0.00,CLR,,0.00,0.0,WeatherDisplay:10.37,2013-05-13 15:25:00,
2013-05-14 01:30:00,63.5,62.6,29.97,NW,315,0.0,0.0,97,0.00,CLR,,0.00,0.0,WeatherDisplay:10.37,2013-05-13 15:30:00,
2013-05-14 01:35:00,63.1,62.3,29.97,NW,315,0.0,0.0,97,0.00,CLR,,0.00,0.0,WeatherDisplay:10.37,2013-05-13 15:35:00,
2013-05-14 01:40:00,63.1,62.3,29.97,NW,315,0.0,2.0,97,0.00,CLR,,0.00,0.0,WeatherDisplay:10.37,2013-05-13 15:40:00,
2013-05-14 01:45:00,63.1,62.3,29.96,NW,315,0.0,0.0,97,0.00,CLR,,0.00,0.0,WeatherDisplay:10.37,2013-05-13 15:45:00,
2013-05-14 01:50:00,63.0,62.1,29.96,NW,315,0.0,0.0,97,0.00,CLR,,0.00,0.0,WeatherDisplay:10.37,2013-05-13 15:50:00,
2013-05-14 01:55:00,62.8,61.9,29.96,NW,315,0.0,0.0,97,0.00,CLR,,0.00,0.0,WeatherDisplay:10.37,2013-05-13 15:55:00,
2013-05-14 02:00:00,62.6,61.7,29.96,NW,315,0.0,0.0,97,0.00,CLR,,0.00,0.0,WeatherDisplay:10.37,2013-05-13 16:00:00,
2013-05-14 02:05:00,62.2,61.7,29.96,NW,315,0.0,0.0,98,0.00,CLR,,0.00,0.0,WeatherDisplay:10.37,2013-05-13 16:05:00,
2013-05-14 02:10:00,62.2,61.7,29.95,WNW,302,0.0,2.0,98,0.00,CLR,,0.00,0.0,WeatherDisplay:10.37,2013-05-13 16:10:00,
2013-05-14 02:15:00,62.2,61.7,29.95,SW,214,0.0,2.0,98,0.00,CLR,,0.00,0.0,WeatherDisplay:10.37,2013-05-13 16:15:00,
2013-05-14 02:20:00,62.1,61.5,29.95,South,180,0.0,0.0,98,0.00,CLR,,0.00,0.0,WeatherDisplay:10.37,2013-05-13 16:20:00,
2013-05-14 02:30:00,62.0,61.4,29.95,SE,139,0.0,2.0,98,0.00,CLR,,0.00,0.0,WeatherDisplay:10.37,2013-05-13 16:30:00,
2013-05-14 02:40:00,62.4,61.8,29.95,ESE,119,1.0,3.0,98,0.00,CLR,,0.00,0.0,WeatherDisplay:10.37,2013-05-13 16:40:00,
2013-05-14 02:45:00,62.7,61.9,29.95,SE,135,1.0,2.0,97,0.00,CLR,,0.00,0.0,WeatherDisplay:10.37,2013-05-13 16:45:00,
2013-05-14 02:50:00,62.6,61.7,29.95,SSE,149,1.0,2.0,97,0.00,CLR,,0.00,0.0,WeatherDisplay:10.37,2013-05-13 16:50:00,
2013-05-14 02:55:00,62.4,61.8,29.94,SSE,165,1.0,2.0,98,0.00,CLR,,0.00,0.0,WeatherDisplay:10.37,2013-05-13 16:55:00,
2013-05-14 03:05:00,62.1,61.5,29.94,SSE,161,2.0,3.0,98,0.00,CLR,,0.00,0.0,WeatherDisplay:10.37,2013-05-13 17:05:00,
2013-05-14 03:10:00,62.1,61.5,29.95,SE,140,2.0,3.0,98,0.00,CLR,,0.00,0.0,WeatherDisplay:10.37,2013-05-13 17:10:00,
2013-05-14 03:15:00,62.1,61.5,29.95,SE,135,1.0,3.0,98,0.00,CLR,,0.00,0.0,WeatherDisplay:10.37,2013-05-13 17:15:00,
2013-05-14 03:20:00,62.1,61.5,29.94,SE,135,1.0,2.0,98,0.00,CLR,,0.00,0.0,WeatherDisplay:10.37,2013-05-13 17:20:00,
2013-05-14 03:25:00,62.2,61.7,29.94,SE,135,2.0,4.0,98,0.00,CLR,,0.00,0.0,WeatherDisplay:10.37,2013-05-13 17:25:00,
2013-05-14 03:30:00,62.4,61.8,29.94,SSE,162,2.0,3.0,98,0.00,CLR,,0.00,0.0,WeatherDisplay:10.37,2013-05-13 17:30:00,
2013-05-14 03:35:00,62.6,61.7,29.94,South,181,1.0,3.0,97,0.00,CLR,,0.00,0.0,WeatherDisplay:10.37,2013-05-13 17:35:00,
2013-05-14 03:40:00,62.8,61.9,29.94,South,180,1.0,3.0,97,0.00,CLR,,0.00,0.0,WeatherDisplay:10.37,2013-05-13 17:40:00,
2013-05-14 03:45:00,63.0,62.1,29.95,South,180,2.0,3.0,97,0.00,CLR,,0.00,0.0,WeatherDisplay:10.37,2013-05-13 17:45:00,
2013-05-14 03:50:00,62.8,61.9,29.95,South,180,1.0,3.0,97,0.00,CLR,,0.00,0.0,WeatherDisplay:10.37,2013-05-13 17:50:00,
2013-05-14 03:55:00,62.6,61.7,29.95,South,180,1.0,2.0,97,0.00,CLR,,0.00,0.0,WeatherDisplay:10.37,2013-05-13 17:55:00,
2013-05-14 04:00:00,62.4,61.8,29.95,South,180,1.0,2.0,98,0.00,CLR,,0.00,0.0,WeatherDisplay:10.37,2013-05-13 18:00:00,
2013-05-14 04:05:00,62.4,61.8,29.95,South,180,0.0,2.0,98,0.00,CLR,,0.00,0.0,WeatherDisplay:10.37,2013-05-13 18:05:00,
2013-05-14 04:10:00,62.2,61.7,29.95,South,180,0.0,2.0,98,0.00,CLR,,0.00,0.0,WeatherDisplay:10.37,2013-05-13 18:10:00,
2013-05-14 04:15:00,62.1,61.5,29.95,South,180,0.0,1.0,98,0.00,CLR,,0.00,0.0,WeatherDisplay:10.37,2013-05-13 18:15:00,
2013-05-14 04:20:00,62.1,61.5,29.95,South,180,1.0,2.0,98,0.00,CLR,,0.00,0.0,WeatherDisplay:10.37,2013-05-13 18:20:00,
2013-05-14 04:25:00,62.1,61.5,29.95,South,180,1.0,2.0,98,0.00,CLR,,0.00,0.0,WeatherDisplay:10.37,2013-05-13 18:25:00,
2013-05-14 04:30:00,62.1,61.5,29.95,South,180,1.0,2.0,98,0.00,CLR,,0.00,0.0,WeatherDisplay:10.37,2013-05-13 18:30:00,
2013-05-14 04:35:00,61.9,61.3,29.95,South,180,1.0,2.0,98,0.00,CLR,,0.00,0.0,WeatherDisplay:10.37,2013-05-13 18:35:00,
2013-05-14 04:45:00,61.7,61.1,29.95,South,180,0.0,1.0,98,0.00,CLR,,0.00,0.0,WeatherDisplay:10.37,2013-05-13 18:45:00,
2013-05-14 04:50:00,61.7,61.1,29.95,South,180,0.0,1.0,98,0.00,CLR,,0.00,0.0,WeatherDisplay:10.37,2013-05-13 18:50:00,
2013-05-14 04:55:00,61.5,61.0,29.95,South,180,1.0,2.0,98,0.00,CLR,,0.00,0.0,WeatherDisplay:10.37,2013-05-13 18:55:00,
2013-05-14 05:00:00,61.5,61.0,29.96,South,180,1.0,2.0,98,0.00,CLR,,0.00,0.0,WeatherDisplay:10.37,2013-05-13 19:00:00,
2013-05-14 05:05:00,61.5,61.0,29.96,South,180,0.0,2.0,98,0.00,CLR,,0.00,0.0,WeatherDisplay:10.37,2013-05-13 19:05:00,
2013-05-14 05:10:00,61.5,61.0,29.96,South,180,0.0,1.0,98,0.00,CLR,,0.00,0.0,WeatherDisplay:10.37,2013-05-13 19:10:00,
2013-05-14 05:15:00,61.5,60.9,29.96,South,180,0.0,1.0,98,0.00,CLR,,0.00,0.0,WeatherDisplay:10.37,2013-05-13 19:15:00,
2013-05-14 05:20:00,61.4,60.9,29.96,South,180,0.0,2.0,98,0.00,CLR,,0.00,0.0,WeatherDisplay:10.37,2013-05-13 19:20:00,
2013-05-14 05:25:00,61.7,61.1,29.95,South,180,0.0,2.0,98,0.00,CLR,,0.00,0.0,WeatherDisplay:10.37,2013-05-13 19:25:00,
2013-05-14 05:30:00,61.9,61.3,29.95,South,180,1.0,2.0,98,0.00,CLR,,0.00,0.0,WeatherDisplay:10.37,2013-05-13 19:30:00,
2013-05-14 05:35:00,62.2,61.7,29.95,South,180,1.0,2.0,98,0.00,CLR,,0.00,0.0,WeatherDisplay:10.37,2013-05-13 19:35:00,
2013-05-14 05:40:00,62.2,61.7,29.96,South,177,3.0,5.0,98,0.00,CLR,,0.00,0.0,WeatherDisplay:10.37,2013-05-13 19:40:00,
2013-05-14 05:45:00,62.2,61.7,29.97,SSE,163,2.0,5.0,98,0.00,CLR,,0.00,0.0,WeatherDisplay:10.37,2013-05-13 19:45:00,
2013-05-14 05:50:00,61.9,61.3,29.97,SSE,162,2.0,5.0,98,0.00,CLR,,0.00,0.0,WeatherDisplay:10.37,2013-05-13 19:50:00,
2013-05-14 05:55:00,61.5,61.0,29.97,SSE,161,2.0,4.0,98,0.00,CLR,,0.00,0.0,WeatherDisplay:10.37,2013-05-13 19:55:00,
2013-05-14 06:00:00,61.7,61.1,29.96,SSE,158,1.0,3.0,98,0.00,CLR,,0.00,0.0,WeatherDisplay:10.37,2013-05-13 20:00:00,
2013-05-14 06:05:00,61.7,61.1,29.96,SSE,158,1.0,3.0,98,0.00,CLR,,0.00,0.0,WeatherDisplay:10.37,2013-05-13 20:05:00,
2013-05-14 06:15:00,62.2,61.7,29.97,SSE,158,1.0,2.0,98,0.00,CLR,,0.00,0.0,WeatherDisplay:10.37,2013-05-13 20:15:00,
2013-05-14 06:20:00,62.2,61.7,29.97,SSE,158,1.0,3.0,98,0.00,CLR,,0.00,0.0,WeatherDisplay:10.37,2013-05-13 20:20:00,
2013-05-14 06:25:00,62.2,61.7,29.97,SSE,158,2.0,3.0,98,0.00,CLR,,0.00,0.0,WeatherDisplay:10.37,2013-05-13 20:25:00,
2013-05-14 06:30:00,62.1,61.5,29.97,SSE,158,1.0,3.0,98,0.00,CLR,,0.00,0.0,WeatherDisplay:10.37,2013-05-13 20:30:00,
2013-05-14 06:35:00,61.9,61.3,29.97,SSE,158,0.0,2.0,98,0.00,CLR,,0.00,1.5,WeatherDisplay:10.37,2013-05-13 20:35:00,
2013-05-14 06:40:00,61.9,61.3,29.97,SSE,158,0.0,2.0,98,0.00,CLR,,0.00,5.8,WeatherDisplay:10.37,2013-05-13 20:40:00,
2013-05-14 06:45:00,61.9,61.3,29.97,SSE,158,0.0,2.0,98,0.00,BKN,,0.00,12.3,WeatherDisplay:10.37,2013-05-13 20:45:00,
2013-05-14 06:50:00,61.9,61.3,29.98,SSE,158,0.0,1.0,98,0.00,BKN,,0.00,18.1,WeatherDisplay:10.37,2013-05-13 20:50:00,
2013-05-14 06:55:00,61.9,61.4,29.98,SSE,158,0.0,2.0,98,0.00,BKN,,0.00,27.4,WeatherDisplay:10.37,2013-05-13 20:55:00,
2013-05-14 07:00:00,62.2,61.7,29.98,SSE,158,0.0,2.0,98,0.00,BKN,,0.00,35.0,WeatherDisplay:10.37,2013-05-13 21:00:00,
2013-05-14 07:05:00,62.2,61.7,29.98,SSE,158,1.0,2.0,98,0.00,BKN,,0.00,51.5,WeatherDisplay:10.37,2013-05-13 21:05:00,
2013-05-14 07:10:00,62.6,61.7,29.98,SSE,158,0.0,2.0,97,0.00,SCT,,0.00,65.9,WeatherDisplay:10.37,2013-05-13 21:10:00,
2013-05-14 07:15:00,62.8,61.9,29.98,SSE,158,2.0,3.0,97,0.00,SCT,,0.00,73.3,WeatherDisplay:10.37,2013-05-13 21:15:00,
2013-05-14 07:20:00,63.0,62.1,29.98,SSE,158,1.0,3.0,97,0.00,CLR,,0.00,86.1,WeatherDisplay:10.37,2013-05-13 21:20:00,
2013-05-14 07:25:00,63.3,62.4,29.99,SSE,158,0.0,3.0,97,0.00,CLR,,0.00,94.0,WeatherDisplay:10.37,2013-05-13 21:25:00,
2013-05-14 07:30:00,63.7,62.8,29.99,SSE,158,2.0,4.0,97,0.00,CLR,,0.00,78.0,WeatherDisplay:10.37,2013-05-13 21:30:00,
2013-05-14 07:35:00,63.9,63.1,29.99,SSE,158,1.0,2.0,97,0.00,CLR,,0.00,62.0,WeatherDisplay:10.37,2013-05-13 21:35:00,
2013-05-14 07:40:00,64.2,63.4,29.99,SSE,158,0.0,2.0,97,0.00,CLR,,0.00,47.0,WeatherDisplay:10.37,2013-05-13 21:40:00,
2013-05-14 07:45:00,64.6,64.3,29.99,SSE,158,2.0,3.0,99,0.00,CLR,,0.00,32.0,WeatherDisplay:10.37,2013-05-13 21:45:00,
2013-05-14 07:50:00,64.8,64.5,29.99,SSE,158,1.0,3.0,99,0.00,CLR,,0.00,18.0,WeatherDisplay:10.37,2013-05-13 21:50:00,
2013-05-14 07:55:00,65.2,64.9,29.99,SSE,158,0.0,2.0,99,0.00,CLR,,0.00,4.0,WeatherDisplay:10.37,2013-05-13 21:55:00,
2013-05-14 08:00:00,65.3,65.0,29.99,SSE,158,1.0,2.0,99,0.00,OVC,,0.00,215.5,WeatherDisplay:10.37,2013-05-13 22:00:00,
2013-05-14 08:05:00,65.9,65.6,29.99,SSE,158,0.0,2.0,99,0.00,OVC,,0.00,203.5,WeatherDisplay:10.37,2013-05-13 22:05:00,
2013-05-14 08:10:00,66.7,66.5,29.99,SSE,158,0.0,1.0,99,0.00,OVC,,0.00,194.8,WeatherDisplay:10.37,2013-05-13 22:10:00,
2013-05-14 08:20:00,68.0,67.7,29.99,SSE,158,0.0,2.0,99,0.00,OVC,,0.00,247.2,WeatherDisplay:10.37,2013-05-13 22:20:00,
2013-05-14 08:25:00,68.1,67.8,29.99,SSE,158,0.0,2.0,99,0.00,OVC,,0.00,268.8,WeatherDisplay:10.37,2013-05-13 22:25:00,
2013-05-14 08:30:00,68.9,68.6,29.99,SSE,158,0.0,2.0,99,0.00,OVC,,0.00,330.7,WeatherDisplay:10.37,2013-05-13 22:30:00,
2013-05-14 08:35:00,70.6,70.0,29.99,SSE,158,0.0,2.0,98,0.00,OVC,,0.00,446.3,WeatherDisplay:10.37,2013-05-13 22:35:00,
2013-05-14 08:40:00,72.1,71.2,29.99,SSE,158,0.0,2.0,97,0.00,OVC,,0.00,469.5,WeatherDisplay:10.37,2013-05-13 22:40:00,
2013-05-14 08:45:00,72.9,71.4,29.99,SSW,199,1.0,2.0,95,0.00,OVC,,0.00,378.5,WeatherDisplay:10.37,2013-05-13 22:45:00,
2013-05-14 08:50:00,72.1,69.3,29.99,WSW,256,0.0,2.0,91,0.00,OVC,,0.00,440.3,WeatherDisplay:10.37,2013-05-13 22:50:00,
2013-05-14 08:55:00,72.9,68.8,29.99,WNW,295,1.0,3.0,87,0.00,OVC,,0.00,498.3,WeatherDisplay:10.37,2013-05-13 22:55:00,
2013-05-14 09:00:00,73.2,68.8,29.99,NW,325,2.0,4.0,86,0.00,OVC,,0.00,523.7,WeatherDisplay:10.37,2013-05-13 23:00:00,
2013-05-14 09:10:00,75.7,70.6,29.99,NNW,348,0.0,3.0,84,0.00,OVC,,0.00,618.0,WeatherDisplay:10.37,2013-05-13 23:10:00,
2013-05-14 09:15:00,77.4,70.3,29.99,NW,317,2.0,4.0,79,0.00,OVC,,0.00,653.2,WeatherDisplay:10.37,2013-05-13 23:15:00,
2013-05-14 09:20:00,77.7,69.5,29.99,NNE,20,2.0,4.0,76,0.00,OVC,,0.00,698.0,WeatherDisplay:10.37,2013-05-13 23:20:00,
2013-05-14 09:25:00,78.8,69.9,29.99,East,99,1.0,3.0,74,0.00,OVC,,0.00,431.6,WeatherDisplay:10.37,2013-05-13 23:25:00,
2013-05-14 09:30:00,78.6,69.6,29.99,ESE,102,3.0,6.0,74,0.00,OVC,,0.00,501.9,WeatherDisplay:10.37,2013-05-13 23:30:00,
2013-05-14 09:35:00,78.6,69.2,29.99,SE,140,3.0,6.0,73,0.00,OVC,,0.00,859.0,WeatherDisplay:10.37,2013-05-13 23:35:00,
2013-05-14 09:40:00,79.8,69.9,29.99,SE,127,1.0,4.0,72,0.00,OVC,,0.00,957.9,WeatherDisplay:10.37,2013-05-13 23:40:00,
2013-05-14 09:45:00,81.0,69.4,29.99,ENE,69,2.0,6.0,68,0.00,OVC,,0.00,345.0,WeatherDisplay:10.37,2013-05-13 23:45:00,
2013-05-14 09:50:00,77.2,67.9,29.99,SE,133,2.0,8.0,73,0.00,OVC,,0.00,225.7,WeatherDisplay:10.37,2013-05-13 23:50:00,
2013-05-14 09:55:00,76.5,68.3,29.99,ESE,120,0.0,3.0,76,0.00,OVC,,0.00,996.5,WeatherDisplay:10.37,2013-05-13 23:55:00,
2013-05-14 10:00:00,79.7,69.9,29.98,East,92,2.0,8.0,72,0.00,OVC,,0.00,902.3,WeatherDisplay:10.37,2013-05-14 00:00:00,
2013-05-14 10:05:00,79.1,67.6,29.99,SSE,147,7.0,8.0,68,0.00,OVC,,0.00,1132.7,WeatherDisplay:10.37,2013-05-14 00:05:00,
2013-05-14 10:10:00,79.7,69.0,29.99,SE,141,7.0,8.0,70,0.00,OVC,,0.00,1125.9,WeatherDisplay:10.37,2013-05-14 00:10:00,
2013-05-14 10:15:00,79.7,68.2,29.98,SE,129,1.0,7.0,68,0.00,OVC,,0.00,1041.9,WeatherDisplay:10.37,2013-05-14 00:15:00,
2013-05-14 10:20:00,80.4,68.0,29.98,SE,124,2.0,7.0,66,0.00,OVC,,0.00,1287.3,WeatherDisplay:10.37,2013-05-14 00:20:00,
2013-05-14 10:25:00,79.7,67.7,29.98,SSE,154,7.0,10.0,67,0.00,OVC,,0.00,458.8,WeatherDisplay:10.37,2013-05-14 00:25:00,
2013-05-14 10:30:00,78.3,68.5,29.98,SSE,153,1.0,10.0,72,0.00,OVC,,0.00,515.2,WeatherDisplay:10.37,2013-05-14 00:30:00,
2013-05-14 10:35:00,79.5,69.3,29.98,SE,135,1.0,5.0,71,0.00,OVC,,0.00,1040.1,WeatherDisplay:10.37,2013-05-14 00:35:00,
2013-05-14 10:40:00,81.1,68.2,29.97,ESE,106,6.0,8.0,65,0.00,OVC,,0.00,1292.4,WeatherDisplay:10.37,2013-05-14 00:40:00,
2013-05-14 10:45:00,82.0,67.3,29.97,ENE,66,7.0,12.0,61,0.00,OVC,,0.00,1252.1,WeatherDisplay:10.37,2013-05-14 00:45:00,
2013-05-14 10:50:00,82.4,66.6,29.97,NE,48,7.0,11.0,59,0.00,OVC,,0.00,1305.1,WeatherDisplay:10.37,2013-05-14 00:50:00,
2013-05-14 10:55:00,81.2,66.5,29.97,NE,37,5.0,9.0,61,0.00,OVC,,0.00,457.9,WeatherDisplay:10.37,2013-05-14 00:55:00,
2013-05-14 11:00:00,81.4,67.1,29.97,NE,44,3.0,6.0,62,0.00,OVC,,0.00,1208.3,WeatherDisplay:10.37,2013-05-14 01:00:00,
2013-05-14 11:05:00,83.1,66.8,29.97,ENE,73,5.0,8.0,58,0.00,OVC,,0.00,1222.3,WeatherDisplay:10.37,2013-05-14 01:05:00,
2013-05-14 11:10:00,82.8,66.5,29.97,NE,41,6.0,12.0,58,0.00,OVC,,0.00,1227.2,WeatherDisplay:10.37,2013-05-14 01:10:00,
2013-05-14 11:15:00,82.0,66.8,29.96,NNE,24,3.0,10.0,60,0.00,OVC,,0.00,1225.3,WeatherDisplay:10.37,2013-05-14 01:15:00,
2013-05-14 11:20:00,83.7,66.3,29.96,NNE,17,2.0,6.0,56,0.00,OVC,,0.00,1235.7,WeatherDisplay:10.37,2013-05-14 01:20:00,
2013-05-14 11:25:00,83.9,66.5,29.96,NNE,24,2.0,8.0,56,0.00,OVC,,0.00,1266.0,WeatherDisplay:10.37,2013-05-14 01:25:00,
2013-05-14 11:30:00,83.5,66.6,29.96,NNE,21,6.0,12.0,57,0.00,OVC,,0.00,1259.5,WeatherDisplay:10.37,2013-05-14 01:30:00,
2013-05-14 11:35:00,84.0,67.1,29.95,NE,37,5.0,8.0,57,0.00,OVC,,0.00,1257.9,WeatherDisplay:10.37,2013-05-14 01:35:00,
2013-05-14 11:40:00,83.7,66.9,29.95,ENE,60,6.0,9.0,57,0.00,OVC,,0.00,1258.4,WeatherDisplay:10.37,2013-05-14 01:40:00,
2013-05-14 11:45:00,84.1,67.2,29.95,NNE,32,2.0,8.0,57,0.00,OVC,,0.00,1302.7,WeatherDisplay:10.37,2013-05-14 01:45:00,
2013-05-14 11:50:00,84.0,67.7,29.95,East,84,3.0,8.0,58,0.00,OVC,,0.00,1354.4,WeatherDisplay:10.37,2013-05-14 01:50:00,
2013-05-14 11:55:00,84.9,67.4,29.95,NE,48,6.0,8.0,56,0.00,OVC,,0.00,1318.6,WeatherDisplay:10.37,2013-05-14 01:55:00,
2013-05-14 12:00:00,83.7,67.3,29.95,NNW,344,3.0,10.0,58,0.00,OVC,,0.00,1270.3,WeatherDisplay:10.37,2013-05-14 02:00:00,
2013-05-14 12:05:00,84.2,67.3,29.95,North,359,3.0,9.0,57,0.00,OVC,,0.00,1325.6,WeatherDisplay:10.37,2013-05-14 02:05:00,
2013-05-14 12:10:00,85.2,67.8,29.94,NE,40,5.0,8.0,56,0.00,OVC,,0.00,1320.9,WeatherDisplay:10.37,2013-05-14 02:10:00,
2013-05-14 12:15:00,84.3,66.3,29.94,East,87,6.0,11.0,55,0.00,OVC,,0.00,1315.2,WeatherDisplay:10.37,2013-05-14 02:15:00,
2013-05-14 12:20:00,84.1,66.7,29.94,NE,55,2.0,8.0,56,0.00,OVC,,0.00,560.7,WeatherDisplay:10.37,2013-05-14 02:20:00,
2013-05-14 12:25:00,83.3,66.5,29.94,ENE,57,3.0,10.0,57,0.00,OVC,,0.00,1301.2,WeatherDisplay:10.37,2013-05-14 02:25:00,
2013-05-14 12:30:00,84.1,67.2,29.94,ENE,70,5.0,9.0,57,0.00,OVC,,0.00,1300.6,WeatherDisplay:10.37,2013-05-14 02:30:00,
2013-05-14 12:35:00,84.4,65.9,29.93,NNE,32,6.0,10.0,54,0.00,OVC,,0.00,1280.7,WeatherDisplay:10.37,2013-05-14 02:35:00,
2013-05-14 12:40:00,84.4,66.0,29.93,NNE,22,6.0,11.0,54,0.00,OVC,,0.00,1304.9,WeatherDisplay:10.37,2013-05-14 02:40:00,
2013-05-14 12:45:00,84.3,66.4,29.93,North,8,9.0,13.0,55,0.00,OVC,,0.00,1251.0,WeatherDisplay:10.37,2013-05-14 02:45:00,
2013-05-14 12:50:00,83.7,65.3,29.93,North,11,5.0,13.0,54,0.00,OVC,,0.00,1221.8,WeatherDisplay:10.37,2013-05-14 02:50:00,
2013-05-14 12:55:00,84.0,65.0,29.92,NNE,13,5.0,11.0,53,0.00,OVC,,0.00,1252.1,WeatherDisplay:10.37,2013-05-14 02:55:00,
2013-05-14 13:00:00,84.4,64.8,29.92,North,3,7.0,13.0,52,0.00,OVC,,0.00,1244.1,WeatherDisplay:10.37,2013-05-14 03:00:00,
2013-05-14 13:05:00,84.5,64.4,29.92,North,8,6.0,9.0,51,0.00,OVC,,0.00,1262.8,WeatherDisplay:10.37,2013-05-14 03:05:00,
2013-05-14 13:10:00,84.6,63.3,29.92,NNE,19,5.0,10.0,49,0.00,OVC,,0.00,1251.4,WeatherDisplay:10.37,2013-05-14 03:10:00,
2013-05-14 13:15:00,84.5,63.8,29.91,North,10,6.0,8.0,50,0.00,OVC,,0.00,1234.2,WeatherDisplay:10.37,2013-05-14 03:15:00,
2013-05-14 13:20:00,85.2,64.5,29.91,North,351,5.0,10.0,50,0.00,OVC,,0.00,1172.7,WeatherDisplay:10.37,2013-05-14 03:20:00,
2013-05-14 13:30:00,85.0,64.9,29.91,NNW,337,5.0,8.0,51,0.00,OVC,,0.00,1208.0,WeatherDisplay:10.37,2013-05-14 03:30:00,
2013-05-14 13:35:00,85.8,66.1,29.91,NNW,347,5.0,8.0,52,0.00,OVC,,0.00,1206.2,WeatherDisplay:10.37,2013-05-14 03:35:00,
2013-05-14 13:40:00,85.8,64.4,29.91,NNE,19,6.0,10.0,49,0.00,OVC,,0.00,1192.0,WeatherDisplay:10.37,2013-05-14 03:40:00,
2013-05-14 13:45:00,85.4,64.1,29.90,NNE,28,1.0,8.0,49,0.00,OVC,,0.00,1182.8,WeatherDisplay:10.37,2013-05-14 03:45:00,
2013-05-14 13:50:00,86.0,64.1,29.90,NNE,31,5.0,8.0,48,0.00,OVC,,0.00,1169.4,WeatherDisplay:10.37,2013-05-14 03:50:00,
2013-05-14 13:55:00,86.1,64.7,29.90,NE,49,5.0,8.0,49,0.00,OVC,,0.00,1155.1,WeatherDisplay:10.37,2013-05-14 03:55:00,
2013-05-14 14:00:00,85.4,65.3,29.90,NE,34,6.0,8.0,51,0.00,OVC,,0.00,1131.7,WeatherDisplay:10.37,2013-05-14 04:00:00,
2013-05-14 14:05:00,85.0,65.4,29.89,NNE,29,6.0,11.0,52,0.00,OVC,,0.00,1112.4,WeatherDisplay:10.37,2013-05-14 04:05:00,
2013-05-14 14:10:00,85.4,66.3,29.90,NE,41,5.0,9.0,53,0.00,OVC,,0.00,1101.9,WeatherDisplay:10.37,2013-05-14 04:10:00,
2013-05-14 14:15:00,85.8,65.0,29.89,NE,41,6.0,12.0,50,0.00,OVC,,0.00,1094.8,WeatherDisplay:10.37,2013-05-14 04:15:00,
2013-05-14 14:20:00,84.5,63.8,29.89,NE,39,3.0,14.0,50,0.00,OVC,,0.00,1023.0,WeatherDisplay:10.37,2013-05-14 04:20:00,
2013-05-14 14:25:00,85.3,64.5,29.89,NNE,32,2.0,9.0,50,0.00,OVC,,0.00,1052.5,WeatherDisplay:10.37,2013-05-14 04:25:00,
2013-05-14 14:30:00,85.5,64.7,29.89,NE,54,6.0,11.0,50,0.00,OVC,,0.00,1032.5,WeatherDisplay:10.37,2013-05-14 04:30:00,
2013-05-14 14:35:00,85.0,64.8,29.89,ENE,67,5.0,9.0,51,0.00,OVC,,0.00,973.8,WeatherDisplay:10.37,2013-05-14 04:35:00,
2013-05-14 14:40:00,85.6,64.9,29.88,NNE,14,7.0,13.0,50,0.00,OVC,,0.00,964.7,WeatherDisplay:10.37,2013-05-14 04:40:00,
2013-05-14 14:45:00,85.0,64.3,29.88,North,5,5.0,13.0,50,0.00,OVC,,0.00,975.1,WeatherDisplay:10.37,2013-05-14 04:45:00,
2013-05-14 14:50:00,85.3,63.4,29.89,NNE,32,5.0,9.0,48,0.00,OVC,,0.00,873.4,WeatherDisplay:10.37,2013-05-14 04:50:00,
2013-05-14 14:55:00,85.6,64.8,29.88,NE,46,7.0,9.0,50,0.00,OVC,,0.00,907.6,WeatherDisplay:10.37,2013-05-14 04:55:00,
2013-05-14 15:00:00,85.1,64.9,29.88,NE,47,5.0,8.0,51,0.00,OVC,,0.00,879.2,WeatherDisplay:10.37,2013-05-14 05:00:00,
2013-05-14 15:05:00,85.2,65.0,29.88,NNE,23,6.0,13.0,51,0.00,OVC,,0.00,875.6,WeatherDisplay:10.37,2013-05-14 05:05:00,
2013-05-14 15:10:00,84.7,65.1,29.88,NNE,25,7.0,13.0,52,0.00,OVC,,0.00,845.3,WeatherDisplay:10.37,2013-05-14 05:10:00,
2013-05-14 15:20:00,85.6,64.8,29.88,NE,42,5.0,7.0,50,0.00,OVC,,0.00,800.4,WeatherDisplay:10.37,2013-05-14 05:20:00,
2013-05-14 15:25:00,85.8,64.4,29.88,NNE,16,5.0,8.0,49,0.00,OVC,,0.00,777.7,WeatherDisplay:10.37,2013-05-14 05:25:00,
2013-05-14 15:30:00,85.2,63.9,29.88,NNE,21,6.0,8.0,49,0.00,OVC,,0.00,747.1,WeatherDisplay:10.37,2013-05-14 05:30:00,
2013-05-14 15:35:00,84.4,63.8,29.88,NNE,32,5.0,10.0,50,0.00,OVC,,0.00,725.2,WeatherDisplay:10.37,2013-05-14 05:35:00,
2013-05-14 15:40:00,84.9,64.8,29.88,NE,34,7.0,9.0,51,0.00,OVC,,0.00,702.4,WeatherDisplay:10.37,2013-05-14 05:40:00,
2013-05-14 15:45:00,84.2,65.2,29.88,NNE,20,7.0,12.0,53,0.00,OVC,,0.00,544.0,WeatherDisplay:10.37,2013-05-14 05:45:00,
2013-05-14 15:50:00,83.3,64.4,29.88,NNE,31,6.0,11.0,53,0.00,OVC,,0.00,658.8,WeatherDisplay:10.37,2013-05-14 05:50:00,
2013-05-14 15:55:00,83.4,63.9,29.88,NE,45,5.0,10.0,52,0.00,OVC,,0.00,619.2,WeatherDisplay:10.37,2013-05-14 05:55:00,
2013-05-14 16:00:00,83.7,64.2,29.88,NE,51,5.0,10.0,52,0.00,CLR,,0.00,591.4,WeatherDisplay:10.37,2013-05-14 06:00:00,
2013-05-14 16:05:00,83.6,64.7,29.88,NE,56,7.0,10.0,53,0.00,CLR,,0.00,491.9,WeatherDisplay:10.37,2013-05-14 06:05:00,
2013-05-14 16:10:00,82.8,65.0,29.88,NE,42,6.0,10.0,55,0.00,CLR,,0.00,491.8,WeatherDisplay:10.37,2013-05-14 06:10:00,
2013-05-14 16:15:00,83.3,65.4,29.88,NNE,29,6.0,8.0,55,0.00,CLR,,0.00,374.4,WeatherDisplay:10.37,2013-05-14 06:15:00,
2013-05-14 16:25:00,82.9,66.1,29.88,NE,54,5.0,8.0,57,0.00,CLR,,0.00,419.8,WeatherDisplay:10.37,2013-05-14 06:25:00,
2013-05-14 16:30:00,82.2,65.5,29.88,NE,56,7.0,13.0,57,0.00,CLR,,0.00,360.5,WeatherDisplay:10.37,2013-05-14 06:30:00,
2013-05-14 16:35:00,81.5,66.8,29.88,NE,46,6.0,11.0,61,0.00,CLR,,0.00,378.1,WeatherDisplay:10.37,2013-05-14 06:35:00,
2013-05-14 16:40:00,81.3,67.5,29.88,NNE,31,6.0,10.0,63,0.00,CLR,,0.00,305.2,WeatherDisplay:10.37,2013-05-14 06:40:00,
2013-05-14 16:50:00,80.9,67.1,29.89,NNE,25,9.0,12.0,63,0.00,CLR,,0.00,294.1,WeatherDisplay:10.37,2013-05-14 06:50:00,
2013-05-14 16:55:00,80.4,67.6,29.89,NE,34,8.0,13.0,65,0.00,CLR,,0.00,259.8,WeatherDisplay:10.37,2013-05-14 06:55:00,
2013-05-14 17:00:00,79.7,67.3,29.89,NE,56,7.0,13.0,66,0.00,CLR,,0.00,232.8,WeatherDisplay:10.37,2013-05-14 07:00:00,
2013-05-14 17:05:00,79.7,67.3,29.89,NE,54,6.0,11.0,66,0.00,CLR,,0.00,187.6,WeatherDisplay:10.37,2013-05-14 07:05:00,
2013-05-14 17:10:00,79.2,67.3,29.89,NE,52,7.0,10.0,67,0.00,CLR,,0.00,125.1,WeatherDisplay:10.37,2013-05-14 07:10:00,
2013-05-14 17:15:00,78.2,67.6,29.90,ENE,60,7.0,10.0,70,0.00,CLR,,0.00,115.1,WeatherDisplay:10.37,2013-05-14 07:15:00,
2013-05-14 17:20:00,77.5,67.8,29.90,ENE,57,5.0,9.0,72,0.00,CLR,,0.00,59.5,WeatherDisplay:10.37,2013-05-14 07:20:00,
2013-05-14 17:25:00,77.0,67.7,29.90,NE,49,7.0,11.0,73,0.00,CLR,,0.00,83.6,WeatherDisplay:10.37,2013-05-14 07:25:00,
2013-05-14 17:30:00,77.0,68.1,29.90,NE,39,7.0,10.0,74,0.00,CLR,,0.00,61.6,WeatherDisplay:10.37,2013-05-14 07:30:00,
2013-05-14 17:40:00,75.5,67.8,29.91,NNE,29,7.0,10.0,77,0.00,CLR,,0.00,20.6,WeatherDisplay:10.37,2013-05-14 07:40:00,
2013-05-14 17:45:00,74.7,67.8,29.91,NE,38,7.0,10.0,79,0.00,CLR,,0.00,11.8,WeatherDisplay:10.37,2013-05-14 07:45:00,
2013-05-14 17:50:00,74.1,67.6,29.91,NE,45,5.0,8.0,80,0.00,CLR,,0.00,4.7,WeatherDisplay:10.37,2013-05-14 07:50:00,
2013-05-14 17:55:00,73.6,67.4,29.91,NNE,32,5.0,7.0,81,0.00,CLR,,0.00,0.0,WeatherDisplay:10.37,2013-05-14 07:55:00,
2013-05-14 18:00:00,73.2,67.1,29.92,NNE,19,3.0,6.0,81,0.00,CLR,,0.00,0.0,WeatherDisplay:10.37,2013-05-14 08:00:00,
2013-05-14 18:05:00,72.8,67.0,29.92,NE,34,5.0,8.0,82,0.00,CLR,,0.00,0.0,WeatherDisplay:10.37,2013-05-14 08:05:00,
2013-05-14 18:10:00,72.5,67.0,29.92,NE,42,3.0,6.0,83,0.00,CLR,,0.00,0.0,WeatherDisplay:10.37,2013-05-14 08:10:00,
2013-05-14 18:15:00,72.0,66.5,29.92,NE,39,3.0,6.0,83,0.00,CLR,,0.00,0.0,WeatherDisplay:10.37,2013-05-14 08:15:00,
2013-05-14 18:20:00,71.6,66.5,29.92,NE,41,2.0,5.0,84,0.00,CLR,,0.00,0.0,WeatherDisplay:10.37,2013-05-14 08:20:00,
2013-05-14 18:30:00,71.2,66.8,29.92,NNE,27,1.0,3.0,86,0.00,CLR,,0.00,0.0,WeatherDisplay:10.37,2013-05-14 08:30:00,
2013-05-14 18:35:00,70.9,66.8,29.92,NNE,24,1.0,3.0,87,0.00,CLR,,0.00,0.0,WeatherDisplay:10.37,2013-05-14 08:35:00,
2013-05-14 18:40:00,70.7,67.0,29.93,North,4,1.0,3.0,88,0.00,CLR,,0.00,0.0,WeatherDisplay:10.37,2013-05-14 08:40:00,
2013-05-14 18:45:00,70.3,66.6,29.93,North,0,0.0,2.0,88,0.00,CLR,,0.00,0.0,WeatherDisplay:10.37,2013-05-14 08:45:00,
2013-05-14 18:50:00,70.2,66.8,29.93,North,0,0.0,0.0,89,0.00,CLR,,0.00,0.0,WeatherDisplay:10.37,2013-05-14 08:50:00,
2013-05-14 18:55:00,69.7,66.7,29.93,North,0,0.0,0.0,90,0.00,CLR,,0.00,0.0,WeatherDisplay:10.37,2013-05-14 08:55:00,
2013-05-14 19:00:00,69.4,66.7,29.93,North,0,0.0,0.0,91,0.00,CLR,,0.00,0.0,WeatherDisplay:10.37,2013-05-14 09:00:00,
2013-05-14 19:05:00,69.3,66.8,29.93,North,0,0.0,0.0,92,0.00,CLR,,0.00,0.0,WeatherDisplay:10.37,2013-05-14 09:05:00,
2013-05-14 19:10:00,69.3,67.1,29.94,North,0,0.0,0.0,93,0.00,CLR,,0.00,0.0,WeatherDisplay:10.37,2013-05-14 09:10:00,
2013-05-14 19:15:00,69.3,67.1,29.94,North,0,0.0,0.0,93,0.00,CLR,,0.00,0.0,WeatherDisplay:10.37,2013-05-14 09:15:00,
2013-05-14 19:20:00,69.1,67.0,29.94,North,0,0.0,0.0,93,0.00,CLR,,0.00,0.0,WeatherDisplay:10.37,2013-05-14 09:20:00,
2013-05-14 19:25:00,69.1,67.0,29.94,North,0,0.0,0.0,93,0.00,CLR,,0.00,0.0,WeatherDisplay:10.37,2013-05-14 09:25:00,
2013-05-14 19:30:00,68.9,67.1,29.94,North,0,0.0,0.0,94,0.00,CLR,,0.00,0.0,WeatherDisplay:10.37,2013-05-14 09:30:00,
2013-05-14 19:35:00,68.9,67.1,29.95,North,0,0.0,0.0,94,0.00,CLR,,0.00,0.0,WeatherDisplay:10.37,2013-05-14 09:35:00,
2013-05-14 19:40:00,68.9,67.1,29.95,North,0,5.0,6.0,94,0.00,CLR,,0.00,0.0,WeatherDisplay:10.37,2013-05-14 09:40:00,
2013-05-14 19:45:00,68.7,67.2,29.95,North,0,6.0,7.0,95,0.00,CLR,,0.00,0.0,WeatherDisplay:10.37,2013-05-14 09:45:00,
2013-05-14 19:50:00,68.6,67.1,29.95,NNW,348,5.0,8.0,95,0.00,CLR,,0.00,0.0,WeatherDisplay:10.37,2013-05-14 09:50:00,
2013-05-14 19:55:00,68.5,67.4,29.95,NNW,346,2.0,6.0,96,0.00,CLR,,0.00,0.0,WeatherDisplay:10.37,2013-05-14 09:55:00,
2013-05-14 20:00:00,68.4,67.2,29.96,North,0,0.0,2.0,96,0.00,CLR,,0.00,0.0,WeatherDisplay:10.37,2013-05-14 10:00:00,
2013-05-14 20:05:00,68.2,67.0,29.96,North,8,1.0,2.0,96,0.00,CLR,,0.00,0.0,WeatherDisplay:10.37,2013-05-14 10:05:00,
2013-05-14 20:10:00,68.2,67.0,29.97,NE,43,2.0,3.0,96,0.00,CLR,,0.00,0.0,WeatherDisplay:10.37,2013-05-14 10:10:00,
2013-05-14 20:15:00,68.0,67.1,29.96,East,80,1.0,3.0,97,0.00,CLR,,0.00,0.0,WeatherDisplay:10.37,2013-05-14 10:15:00,
2013-05-14 20:20:00,67.8,66.9,29.96,ENE,77,0.0,3.0,97,0.00,CLR,,0.00,0.0,WeatherDisplay:10.37,2013-05-14 10:20:00,
2013-05-14 20:30:00,67.3,66.7,29.97,NNW,334,1.0,3.0,98,0.00,CLR,,0.00,0.0,WeatherDisplay:10.37,2013-05-14 10:30:00,
2013-05-14 20:35:00,67.1,66.5,29.97,NNW,344,1.0,2.0,98,0.00,CLR,,0.00,0.0,WeatherDisplay:10.37,2013-05-14 10:35:00,
2013-05-14 20:40:00,66.9,66.3,29.97,NNW,330,0.0,2.0,98,0.00,CLR,,0.00,0.0,WeatherDisplay:10.37,2013-05-14 10:40:00,
2013-05-14 20:45:00,66.6,66.0,29.97,NW,315,0.0,0.0,98,0.00,CLR,,0.00,0.0,WeatherDisplay:10.37,2013-05-14 10:45:00,
2013-05-14 20:50:00,66.6,66.0,29.97,NW,315,0.0,0.0,98,0.00,CLR,,0.00,0.0,WeatherDisplay:10.37,2013-05-14 10:50:00,
2013-05-14 20:55:00,66.9,66.6,29.97,NW,315,0.0,0.0,99,0.00,CLR,,0.00,0.0,WeatherDisplay:10.37,2013-05-14 10:55:00,
2013-05-14 21:00:00,66.8,66.5,29.97,NW,315,1.0,2.0,99,0.00,CLR,,0.00,0.0,WeatherDisplay:10.37,2013-05-14 11:00:00,
2013-05-14 21:05:00,66.6,66.3,29.98,NNW,343,1.0,2.0,99,0.00,CLR,,0.00,0.0,WeatherDisplay:10.37,2013-05-14 11:05:00,
2013-05-14 21:10:00,66.6,66.3,29.97,East,86,0.0,1.0,99,0.00,CLR,,0.00,0.0,WeatherDisplay:10.37,2013-05-14 11:10:00,
2013-05-14 21:15:00,66.4,66.1,29.97,East,90,0.0,1.0,99,0.00,CLR,,0.00,0.0,WeatherDisplay:10.37,2013-05-14 11:15:00,
2013-05-14 21:20:00,66.2,65.9,29.97,East,90,0.0,2.0,99,0.00,CLR,,0.00,0.0,WeatherDisplay:10.37,2013-05-14 11:20:00,
2013-05-14 21:25:00,66.0,65.7,29.97,East,90,0.0,2.0,99,0.00,CLR,,0.00,0.0,WeatherDisplay:10.37,2013-05-14 11:25:00,
2013-05-14 21:30:00,66.0,65.7,29.97,NNE,24,0.0,0.0,99,0.00,CLR,,0.00,0.0,WeatherDisplay:10.37,2013-05-14 11:30:00,
2013-05-14 21:35:00,65.8,65.6,29.97,North,0,0.0,1.0,99,0.00,CLR,,0.00,0.0,WeatherDisplay:10.37,2013-05-14 11:35:00,
2013-05-14 21:40:00,66.0,65.7,29.97,North,0,0.0,1.0,99,0.00,CLR,,0.00,0.0,WeatherDisplay:10.37,2013-05-14 11:40:00,
2013-05-14 21:50:00,66.1,65.9,29.98,North,354,1.0,2.0,99,0.00,CLR,,0.00,0.0,WeatherDisplay:10.37,2013-05-14 11:50:00,
2013-05-14 21:55:00,66.2,65.9,29.98,NNW,332,0.0,2.0,99,0.00,CLR,,0.00,0.0,WeatherDisplay:10.37,2013-05-14 11:55:00,
2013-05-14 22:00:00,66.4,66.1,29.98,NW,315,0.0,0.0,99,0.00,CLR,,0.00,0.0,WeatherDisplay:10.37,2013-05-14 12:00:00,
2013-05-14 22:05:00,66.6,66.3,29.97,NW,315,0.0,0.0,99,0.00,CLR,,0.00,0.0,WeatherDisplay:10.37,2013-05-14 12:05:00,
2013-05-14 22:10:00,66.2,65.9,29.98,NW,315,0.0,1.0,99,0.00,CLR,,0.00,0.0,WeatherDisplay:10.37,2013-05-14 12:10:00,
2013-05-14 22:15:00,66.0,65.7,29.97,NW,315,0.0,0.0,99,0.00,CLR,,0.00,0.0,WeatherDisplay:10.37,2013-05-14 12:15:00,
2013-05-14 22:20:00,65.8,65.6,29.98,NW,315,0.0,0.0,99,0.00,CLR,,0.00,0.0,WeatherDisplay:10.37,2013-05-14 12:20:00,
2013-05-14 22:25:00,66.0,65.7,29.98,NW,315,0.0,1.0,99,0.00,CLR,,0.00,0.0,WeatherDisplay:10.37,2013-05-14 12:25:00,
2013-05-14 22:30:00,66.0,65.7,29.98,NW,315,0.0,0.0,99,0.00,CLR,,0.00,0.0,WeatherDisplay:10.37,2013-05-14 12:30:00,
2013-05-14 22:40:00,65.5,65.2,29.98,NW,315,0.0,0.0,99,0.00,CLR,,0.00,0.0,WeatherDisplay:10.37,2013-05-14 12:40:00,
2013-05-14 22:45:00,65.3,65.0,29.98,NW,315,0.0,0.0,99,0.00,CLR,,0.00,0.0,WeatherDisplay:10.37,2013-05-14 12:45:00,
2013-05-14 22:50:00,65.3,65.0,29.98,NW,315,0.0,0.0,99,0.00,CLR,,0.00,0.0,WeatherDisplay:10.37,2013-05-14 12:50:00,
2013-05-14 22:55:00,65.3,65.0,29.98,NW,315,0.0,0.0,99,0.00,CLR,,0.00,0.0,WeatherDisplay:10.37,2013-05-14 12:55:00,
2013-05-14 23:00:00,65.1,64.8,29.98,NW,315,0.0,0.0,99,0.00,CLR,,0.00,0.0,WeatherDisplay:10.37,2013-05-14 13:00:00,
2013-05-14 23:05:00,64.9,64.7,29.98,West,271,0.0,3.0,99,0.00,CLR,,0.00,0.0,WeatherDisplay:10.37,2013-05-14 13:05:00,
2013-05-14 23:10:00,64.7,64.4,29.98,SSE,148,2.0,4.0,99,0.00,CLR,,0.00,0.0,WeatherDisplay:10.37,2013-05-14 13:10:00,
2013-05-14 23:15:00,64.4,64.1,29.98,SE,137,0.0,2.0,99,0.00,CLR,,0.00,0.0,WeatherDisplay:10.37,2013-05-14 13:15:00,
2013-05-14 23:20:00,64.4,64.1,29.98,SE,135,1.0,2.0,99,0.00,CLR,,0.00,0.0,WeatherDisplay:10.37,2013-05-14 13:20:00,
2013-05-14 23:25:00,64.2,63.4,29.98,SE,135,0.0,2.0,97,0.00,CLR,,0.00,0.0,WeatherDisplay:10.37,2013-05-14 13:25:00,
2013-05-14 23:30:00,64.2,63.4,29.98,SE,135,0.0,0.0,97,0.00,CLR,,0.00,0.0,WeatherDisplay:10.37,2013-05-14 13:30:00,
2013-05-14 23:40:00,64.0,63.2,29.98,SE,135,0.0,0.0,97,0.00,CLR,,0.00,0.0,WeatherDisplay:10.37,2013-05-14 13:40:00,
2013-05-14 23:45:00,64.0,63.2,29.97,SE,135,0.0,0.0,97,0.00,CLR,,0.00,0.0,WeatherDisplay:10.37,2013-05-14 13:45:00,
2013-05-14 23:50:00,64.1,63.3,29.97,SE,135,0.0,0.0,97,0.00,CLR,,0.00,0.0,WeatherDisplay:10.37,2013-05-14 13:50:00,
2013-05-14 23:55:00,64.2,63.4,29.97,SE,135,0.0,0.0,97,0.00,CLR,,0.00,0.0,WeatherDisplay:10.37,2013-05-14 13:55:00,